createdAt,value
2018-08-09T00:00:36.062Z,23.55
2018-08-09T00:01:36.545Z,23.42
2018-08-09T00:02:36.369Z,23.57
2018-08-09T00:03:51.055Z,23.48
2018-08-09T00:04:36.162Z,23.39
2018-08-09T00:05:36.456Z,23.54
2018-08-09T00:06:36.475Z,23.61
2018-08-09T00:07:36.249Z,23.51
2018-08-09T00:08:51.199Z,23.61
2018-08-09T00:10:36.577Z,23.54
2018-08-09T00:11:36.607Z,23.5
2018-08-09T00:12:36.632Z,23.42
2018-08-09T00:13:36.660Z,23.47
2018-08-09T00:14:36.435Z,23.46
2018-08-09T00:15:36.454Z,23.46
2018-08-09T00:16:36.484Z,23.46
2018-08-09T00:17:36.766Z,23.53
2018-08-09T00:18:36.794Z,23.57
2018-08-09T00:19:36.823Z,23.47
2018-08-09T00:20:36.846Z,23.38
2018-08-09T00:21:36.611Z,23.38
2018-08-09T00:22:36.895Z,23.35
2018-08-09T00:23:36.927Z,23.42
2018-08-09T00:24:36.951Z,23.35
2018-08-09T00:25:36.725Z,23.23
2018-08-09T00:27:37.036Z,23.31
2018-08-09T00:28:37.056Z,23.31
2018-08-09T00:30:36.852Z,23.22
2018-08-09T00:31:37.132Z,23.36
2018-08-09T00:32:36.903Z,23.28
2018-08-09T00:33:37.190Z,23.36
2018-08-09T00:34:51.620Z,23.31
2018-08-09T00:35:36.986Z,23.35
2018-08-09T00:36:37.015Z,23.27
2018-08-09T00:37:37.037Z,23.22
2018-08-09T00:38:37.326Z,23.25
2018-08-09T00:39:37.343Z,23.33
2018-08-09T00:40:52.036Z,23.32
2018-08-09T00:41:37.404Z,23.28
2018-08-09T00:42:37.425Z,23.25
2018-08-09T00:43:37.453Z,23.28
2018-08-09T00:45:37.248Z,23.32
2018-08-09T00:46:37.529Z,23.27
2018-08-09T00:47:37.561Z,23.31
2018-08-09T00:48:37.590Z,23.33
2018-08-09T00:49:37.615Z,23.28
2018-08-09T00:50:52.298Z,23.22
2018-08-09T00:51:37.714Z,23.15
2018-08-09T00:52:37.700Z,23.16
2018-08-09T00:53:37.715Z,23.22
2018-08-09T00:54:37.740Z,23.2
2018-08-09T00:56:52.198Z,23.15
2018-08-09T00:57:37.560Z,23.16
2018-08-09T00:58:37.844Z,23.16
2018-08-09T00:59:37.878Z,23.2
2018-08-09T01:01:52.592Z,23.13
2018-08-09T01:02:37.791Z,23.16
2018-08-09T01:03:37.979Z,23.17
2018-08-09T01:04:52.668Z,23.05
2018-08-09T01:05:38.030Z,23.02
2018-08-09T01:06:38.060Z,23
2018-08-09T01:07:38.108Z,23.15
2018-08-09T01:08:38.108Z,22.98
2018-08-09T01:09:38.163Z,23.04
2018-08-09T01:10:38.167Z,23.04
2018-08-09T01:11:37.931Z,23.02
2018-08-09T01:12:52.876Z,22.97
2018-08-09T01:13:52.910Z,22.92
2018-08-09T01:14:38.266Z,22.98
2018-08-09T01:15:38.292Z,22.97
2018-08-09T01:16:38.069Z,22.94
2018-08-09T01:17:38.345Z,22.98
2018-08-09T01:18:37.857Z,22.92
2018-08-09T01:19:38.395Z,22.92
2018-08-09T01:20:38.424Z,22.95
2018-08-09T01:21:38.195Z,22.9
2018-08-09T01:22:53.137Z,22.91
2018-08-09T01:23:38.251Z,22.98
2018-08-09T01:24:38.581Z,22.86
2018-08-09T01:26:38.588Z,22.79
2018-08-09T01:27:38.603Z,22.77
2018-08-09T01:28:53.296Z,22.77
2018-08-09T01:29:38.400Z,22.8
2018-08-09T01:30:38.682Z,22.77
2018-08-09T01:31:38.719Z,22.68
2018-08-09T01:32:38.481Z,22.62
2018-08-09T01:33:38.864Z,22.68
2018-08-09T01:34:38.540Z,22.64
2018-08-09T01:35:38.817Z,22.47
2018-08-09T01:36:38.841Z,22.51
2018-08-09T01:37:38.610Z,22.58
2018-08-09T01:38:38.379Z,22.57
2018-08-09T01:39:38.918Z,22.49
2018-08-09T01:40:38.945Z,22.43
2018-08-09T01:41:38.710Z,22.37
2018-08-09T01:42:38.993Z,22.39
2018-08-09T01:43:53.694Z,22.39
2018-08-09T01:44:39.047Z,22.45
2018-08-09T01:45:38.817Z,22.42
2018-08-09T01:46:39.102Z,22.46
2018-08-09T01:47:39.128Z,22.39
2018-08-09T01:48:39.202Z,22.43
2018-08-09T01:49:39.178Z,22.46
2018-08-09T01:50:39.212Z,22.43
2018-08-09T01:51:39.228Z,22.51
2018-08-09T01:52:39.259Z,22.45
2018-08-09T01:53:53.942Z,22.31
2018-08-09T01:54:39.305Z,22.37
2018-08-09T01:55:39.337Z,22.33
2018-08-09T01:56:39.361Z,22.37
2018-08-09T01:57:39.125Z,22.39
2018-08-09T01:58:39.154Z,22.39
2018-08-09T01:59:39.433Z,22.4
2018-08-09T02:01:39.492Z,22.3
2018-08-09T02:02:39.514Z,22.36
2018-08-09T02:03:54.205Z,22.3
2018-08-09T02:04:39.725Z,22.33
2018-08-09T02:05:39.590Z,22.39
2018-08-09T02:06:54.286Z,22.31
2018-08-09T02:07:39.709Z,22.3
2018-08-09T02:08:39.728Z,22.37
2018-08-09T02:09:39.689Z,22.36
2018-08-09T02:10:39.720Z,22.36
2018-08-09T02:11:39.743Z,22.43
2018-08-09T02:12:39.770Z,22.45
2018-08-09T02:13:39.804Z,22.36
2018-08-09T02:15:54.508Z,22.42
2018-08-09T02:16:39.867Z,22.4
2018-08-09T02:17:39.898Z,22.35
2018-08-09T02:18:39.923Z,22.37
2018-08-09T02:20:39.718Z,22.33
2018-08-09T02:21:39.999Z,22.28
2018-08-09T02:22:40.025Z,22.35
2018-08-09T02:23:40.058Z,22.25
2018-08-09T02:24:39.827Z,22.21
2018-08-09T02:25:40.109Z,22.22
2018-08-09T02:26:40.129Z,22.27
2018-08-09T02:27:40.153Z,22.3
2018-08-09T02:29:40.203Z,22.27
2018-08-09T02:31:54.935Z,22.3
2018-08-09T02:32:40.290Z,22.24
2018-08-09T02:35:40.363Z,22.27
2018-08-09T02:36:40.384Z,22.25
2018-08-09T02:37:40.408Z,22.2
2018-08-09T02:38:40.437Z,22.22
2018-08-09T02:39:40.207Z,22.27
2018-08-09T02:40:40.230Z,22.25
2018-08-09T02:41:40.511Z,22.21
2018-08-09T02:42:40.536Z,22.28
2018-08-09T02:43:40.561Z,22.27
2018-08-09T02:44:40.590Z,22.17
2018-08-09T02:45:40.354Z,22.27
2018-08-09T02:46:40.811Z,22.25
2018-08-09T02:47:55.330Z,22.21
2018-08-09T02:48:40.435Z,22.27
2018-08-09T02:49:40.488Z,22.27
2018-08-09T02:50:40.741Z,22.25
2018-08-09T02:51:40.780Z,22.18
2018-08-09T02:52:40.547Z,22.28
2018-08-09T02:53:40.924Z,22.15
2018-08-09T02:54:40.590Z,22.21
2018-08-09T02:55:40.615Z,22.27
2018-08-09T02:56:55.301Z,22.18
2018-08-09T02:57:40.980Z,22.25
2018-08-09T02:58:40.696Z,22.22
2018-08-09T02:59:40.718Z,22.2
2018-08-09T03:00:40.745Z,22.25
2018-08-09T03:01:41.024Z,22.2
2018-08-09T03:02:40.802Z,22.2
2018-08-09T03:03:55.739Z,22.3
2018-08-09T03:04:41.101Z,22.27
2018-08-09T03:05:41.123Z,22.15
2018-08-09T03:06:41.150Z,22.24
2018-08-09T03:08:41.197Z,22.21
2018-08-09T03:09:41.258Z,22.18
2018-08-09T03:10:41.252Z,22.18
2018-08-09T03:11:41.023Z,22.2
2018-08-09T03:12:41.304Z,22.28
2018-08-09T03:13:41.322Z,22.17
2018-08-09T03:14:41.353Z,22.2
2018-08-09T03:15:41.377Z,22.12
2018-08-09T03:16:41.406Z,22.07
2018-08-09T03:17:41.438Z,22.12
2018-08-09T03:18:56.121Z,22.1
2018-08-09T03:19:41.221Z,22.14
2018-08-09T03:21:41.532Z,22.15
2018-08-09T03:22:41.299Z,22.07
2018-08-09T03:23:41.581Z,22.14
2018-08-09T03:24:41.608Z,22.09
2018-08-09T03:25:56.298Z,22.09
2018-08-09T03:26:41.664Z,22.07
2018-08-09T03:27:41.425Z,22.07
2018-08-09T03:28:41.448Z,22.12
2018-08-09T03:29:41.733Z,22
2018-08-09T03:30:41.775Z,22.09
2018-08-09T03:31:56.459Z,22.02
2018-08-09T03:32:41.554Z,22.07
2018-08-09T03:33:41.837Z,22.05
2018-08-09T03:34:41.860Z,22.1
2018-08-09T03:36:41.909Z,22
2018-08-09T03:37:41.942Z,22.03
2018-08-09T03:38:41.707Z,22.05
2018-08-09T03:39:41.990Z,22.05
2018-08-09T03:40:42.021Z,22.09
2018-08-09T03:41:41.780Z,21.98
2018-08-09T03:42:42.065Z,22.1
2018-08-09T03:43:56.751Z,22.2
2018-08-09T03:44:41.855Z,22.14
2018-08-09T03:45:42.140Z,22.05
2018-08-09T03:46:42.169Z,22.02
2018-08-09T03:47:42.190Z,22.02
2018-08-09T03:48:42.237Z,22
2018-08-09T03:49:42.242Z,22.06
2018-08-09T03:50:56.927Z,22.06
2018-08-09T03:51:42.391Z,22
2018-08-09T03:53:42.347Z,22.03
2018-08-09T03:54:42.368Z,22.09
2018-08-09T03:55:42.396Z,22.12
2018-08-09T03:56:42.422Z,22.06
2018-08-09T03:57:42.184Z,22.12
2018-08-09T03:58:42.472Z,22.14
2018-08-09T03:59:42.633Z,22.12
2018-08-09T04:00:57.181Z,22.1
2018-08-09T04:02:42.571Z,22.14
2018-08-09T04:03:42.598Z,22.1
2018-08-09T04:04:42.628Z,22.1
2018-08-09T04:05:42.649Z,22.07
2018-08-09T04:06:57.331Z,22.18
2018-08-09T04:07:42.444Z,22.21
2018-08-09T04:09:42.746Z,22.18
2018-08-09T04:10:42.775Z,22.2
2018-08-09T04:11:42.664Z,22.21
2018-08-09T04:12:42.921Z,22.2
2018-08-09T04:13:42.850Z,22.18
2018-08-09T04:14:57.538Z,22.18
2018-08-09T04:15:42.897Z,22.18
2018-08-09T04:16:42.668Z,22.24
2018-08-09T04:17:42.692Z,22.12
2018-08-09T04:18:42.976Z,22.18
2018-08-09T04:19:42.486Z,22.24
2018-08-09T04:20:43.036Z,22.27
2018-08-09T04:21:43.052Z,22.25
2018-08-09T04:22:57.845Z,22.31
2018-08-09T04:23:43.104Z,22.35
2018-08-09T04:25:42.898Z,22.33
2018-08-09T04:26:43.380Z,22.4
2018-08-09T04:27:42.949Z,22.47
2018-08-09T04:28:43.327Z,22.51
2018-08-09T04:29:43.255Z,22.46
2018-08-09T04:30:43.023Z,22.54
2018-08-09T04:31:57.969Z,22.54
2018-08-09T04:32:57.739Z,22.55
2018-08-09T04:33:43.355Z,22.58
2018-08-09T04:34:43.381Z,22.58
2018-08-09T04:35:43.409Z,22.58
2018-08-09T04:36:43.181Z,22.55
2018-08-09T04:37:43.464Z,22.55
2018-08-09T04:38:58.254Z,22.54
2018-08-09T04:39:43.514Z,22.64
2018-08-09T04:40:43.283Z,22.62
2018-08-09T04:41:43.564Z,22.68
2018-08-09T04:42:43.333Z,22.88
2018-08-09T04:43:43.357Z,22.9
2018-08-09T04:44:43.640Z,22.79
2018-08-09T04:45:43.669Z,22.73
2018-08-09T04:46:43.434Z,22.8
2018-08-09T04:47:43.466Z,22.82
2018-08-09T04:48:58.405Z,22.95
2018-08-09T04:49:43.769Z,22.91
2018-08-09T04:50:43.792Z,22.98
2018-08-09T04:51:43.563Z,22.98
2018-08-09T04:52:43.847Z,23
2018-08-09T04:53:58.278Z,23.1
2018-08-09T04:54:43.898Z,23.05
2018-08-09T04:56:43.950Z,23.09
2018-08-09T04:57:43.972Z,23.22
2018-08-09T04:58:44.017Z,23.36
2018-08-09T04:59:43.772Z,23.54
2018-08-09T05:00:44.055Z,23.94
2018-08-09T05:01:44.085Z,24.27
2018-08-09T05:02:43.849Z,24.43
2018-08-09T05:03:44.134Z,24.68
2018-08-09T05:04:58.821Z,25.14
2018-08-09T05:05:43.928Z,25.32
2018-08-09T05:06:44.220Z,25.5
2018-08-09T05:07:44.245Z,25.51
2018-08-09T05:08:44.266Z,25.35
2018-08-09T05:09:44.298Z,25.46
2018-08-09T05:10:44.065Z,25.58
2018-08-09T05:11:44.354Z,25.5
2018-08-09T05:12:44.380Z,25.6
2018-08-09T05:13:59.072Z,25.9
2018-08-09T05:14:44.176Z,26.17
2018-08-09T05:15:44.460Z,26.3
2018-08-09T05:16:44.490Z,26.39
2018-08-09T05:17:44.266Z,26.36
2018-08-09T05:18:44.549Z,26.54
2018-08-09T05:19:44.572Z,26.88
2018-08-09T05:20:44.606Z,27.4
2018-08-09T05:21:59.293Z,28.15
2018-08-09T05:22:44.665Z,27.74
2018-08-09T05:23:44.694Z,27.31
2018-08-09T05:24:44.465Z,27.46
2018-08-09T05:25:59.412Z,27.84
2018-08-09T05:26:44.791Z,27.96
2018-08-09T05:27:44.818Z,28.11
2018-08-09T05:28:44.843Z,28.36
2018-08-09T05:30:44.639Z,29.19
2018-08-09T05:31:44.673Z,29.45
2018-08-09T05:32:44.959Z,29.55
2018-08-09T05:33:44.993Z,29.34
2018-08-09T05:34:45.022Z,28.81
2018-08-09T05:35:45.054Z,28.3
2018-08-09T05:36:45.129Z,27.6
2018-08-09T05:37:45.121Z,27.34
2018-08-09T05:38:45.145Z,27.29
2018-08-09T05:39:44.920Z,27.94
2018-08-09T05:40:45.210Z,28.59
2018-08-09T05:41:59.906Z,28.52
2018-08-09T05:42:45.271Z,28.18
2018-08-09T05:43:45.298Z,27.96
2018-08-09T05:45:45.119Z,27.85
2018-08-09T05:46:45.395Z,27.69
2018-08-09T05:47:45.430Z,27.94
2018-08-09T05:48:45.201Z,27.99
2018-08-09T05:49:45.237Z,28.4
2018-08-09T05:50:45.521Z,29.12
2018-08-09T05:52:00.218Z,29.87
2018-08-09T05:52:45.453Z,30.32
2018-08-09T05:53:45.366Z,29.83
2018-08-09T05:54:45.651Z,29.46
2018-08-09T05:55:45.427Z,29.87
2018-08-09T05:56:45.461Z,29.86
2018-08-09T05:58:00.412Z,29.23
2018-08-09T05:58:45.783Z,29.15
2018-08-09T05:59:45.815Z,29.48
2018-08-09T06:00:45.849Z,29.74
2018-08-09T06:01:45.625Z,30.01
2018-08-09T06:02:45.919Z,29.55
2018-08-09T06:03:45.946Z,29.45
2018-08-09T06:04:45.979Z,29.37
2018-08-09T06:05:46.294Z,29.24
2018-08-09T06:06:45.788Z,29.52
2018-08-09T06:08:00.487Z,29.65
2018-08-09T06:10:45.921Z,31.48
2018-08-09T06:11:45.957Z,31.68
2018-08-09T06:12:45.995Z,32.07
2018-08-09T06:14:00.945Z,32.11
2018-08-09T06:14:46.313Z,31.85
2018-08-09T06:15:46.348Z,31.51
2018-08-09T06:18:46.550Z,31.51
2018-08-09T06:19:46.484Z,31.58
2018-08-09T06:20:46.518Z,31.35
2018-08-09T06:21:46.556Z,30.89
2018-08-09T06:22:46.591Z,30.69
2018-08-09T06:23:46.621Z,31.09
2018-08-09T06:24:46.400Z,30.88
2018-08-09T06:25:46.831Z,30.7
2018-08-09T06:26:46.634Z,30.76
2018-08-09T06:27:46.759Z,30.94
2018-08-09T06:29:01.459Z,30.82
2018-08-09T06:30:46.873Z,30.05
2018-08-09T06:31:46.899Z,29.92
2018-08-09T06:32:46.931Z,30.05
2018-08-09T06:34:01.637Z,29.86
2018-08-09T06:34:46.744Z,30.08
2018-08-09T06:36:01.702Z,30.02
2018-08-09T06:36:47.075Z,30.27
2018-08-09T06:37:46.863Z,30.32
2018-08-09T06:38:47.143Z,30.11
2018-08-09T06:40:01.838Z,29.55
2018-08-09T06:40:46.951Z,29.24
2018-08-09T06:41:47.243Z,28.73
2018-08-09T06:42:47.278Z,29
2018-08-09T06:43:47.314Z,29.3
2018-08-09T06:44:47.355Z,29.52
2018-08-09T06:45:47.394Z,29.87
2018-08-09T06:46:47.421Z,29.68
2018-08-09T06:47:47.630Z,29.94
2018-08-09T06:48:47.487Z,30.13
2018-08-09T06:49:47.264Z,30.01
2018-08-09T06:50:47.573Z,30.65
2018-08-09T06:51:47.595Z,30.83
2018-08-09T06:52:47.371Z,30.77
2018-08-09T06:53:47.668Z,30.62
2018-08-09T06:54:47.697Z,30.79
2018-08-09T06:55:47.788Z,30.69
2018-08-09T06:56:47.772Z,30.55
2018-08-09T06:57:47.805Z,30.15
2018-08-09T06:58:47.838Z,30.75
2018-08-09T06:59:47.877Z,31.09
2018-08-09T07:01:02.575Z,31.28
2018-08-09T07:01:47.947Z,31.2
2018-08-09T07:02:47.722Z,30.38
2018-08-09T07:03:47.751Z,30.04
2018-08-09T07:04:48.048Z,30.31
2018-08-09T07:05:48.083Z,30.83
2018-08-09T07:06:48.124Z,31.12
2018-08-09T07:08:48.186Z,31.02
2018-08-09T07:09:48.227Z,30.35
2018-08-09T07:10:48.257Z,30.55
2018-08-09T07:11:48.301Z,31.06
2018-08-09T07:12:48.440Z,30.94
2018-08-09T07:13:48.366Z,30.83
2018-08-09T07:14:48.398Z,30.49
2018-08-09T07:17:02.877Z,30.64
2018-08-09T07:17:48.510Z,30.46
2018-08-09T07:18:48.544Z,30.51
2018-08-09T07:19:48.577Z,30.13
2018-08-09T07:20:48.611Z,30.42
2018-08-09T07:21:48.656Z,30.46
2018-08-09T07:22:48.682Z,30.64
2018-08-09T07:23:48.717Z,30.58
2018-08-09T07:25:03.418Z,30.27
2018-08-09T07:25:48.792Z,30.79
2018-08-09T07:26:48.830Z,31.43
2018-08-09T07:27:48.862Z,31.28
2018-08-09T07:28:48.897Z,31.25
2018-08-09T07:29:48.928Z,31.51
2018-08-09T07:30:48.967Z,31.57
2018-08-09T07:31:48.743Z,31.5
2018-08-09T07:33:03.441Z,31.04
2018-08-09T07:34:49.103Z,31.44
2018-08-09T07:37:48.955Z,31.75
2018-08-09T07:38:49.248Z,31.44
2018-08-09T07:39:49.208Z,31.68
2018-08-09T07:40:49.317Z,31.73
2018-08-09T07:42:04.017Z,32.15
2018-08-09T07:43:04.053Z,32.69
2018-08-09T07:43:49.424Z,32.87
2018-08-09T07:44:49.464Z,33
2018-08-09T07:45:49.239Z,33.66
2018-08-09T07:46:49.276Z,33.68
2018-08-09T07:47:49.568Z,33.35
2018-08-09T07:49:04.012Z,32.67
2018-08-09T07:49:49.652Z,32.07
2018-08-09T07:50:49.674Z,32.15
2018-08-09T07:51:49.712Z,32.38
2018-08-09T07:52:49.486Z,32.3
2018-08-09T07:53:49.525Z,32.62
2018-08-09T07:54:49.559Z,32.77
2018-08-09T07:56:04.518Z,32.07
2018-08-09T07:56:49.631Z,31.91
2018-08-09T07:57:49.938Z,31.91
2018-08-09T07:58:49.962Z,32.13
2018-08-09T07:59:50.002Z,31.88
2018-08-09T08:00:49.786Z,31.38
2018-08-09T08:01:50.068Z,31.54
2018-08-09T08:02:50.131Z,31.41
2018-08-09T08:04:04.907Z,31.28
2018-08-09T08:04:50.187Z,31.09
2018-08-09T08:05:50.486Z,31.5
2018-08-09T08:06:49.993Z,31.48
2018-08-09T08:08:50.068Z,31.95
2018-08-09T08:09:50.378Z,32.59
2018-08-09T08:10:50.129Z,33.49
2018-08-09T08:11:50.436Z,33.61
2018-08-09T08:13:05.123Z,33.75
2018-08-09T08:13:50.239Z,34.09
2018-08-09T08:14:50.527Z,33.94
2018-08-09T08:16:50.598Z,33.16
2018-08-09T08:17:50.643Z,33.21
2018-08-09T08:18:50.678Z,33.54
2018-08-09T08:19:50.721Z,33.97
2018-08-09T08:20:51.082Z,34.47
2018-08-09T08:21:50.784Z,34.92
2018-08-09T08:22:50.819Z,35.28
2018-08-09T08:24:50.886Z,35.5
2018-08-09T08:25:50.928Z,35.15
2018-08-09T08:27:50.739Z,35.1
2018-08-09T08:29:05.694Z,35.19
2018-08-09T08:30:05.729Z,34.81
2018-08-09T08:30:51.103Z,34.84
2018-08-09T08:31:51.140Z,34.87
2018-08-09T08:32:51.173Z,34.12
2018-08-09T08:33:50.954Z,33.98
2018-08-09T08:34:51.251Z,34.19
2018-08-09T08:36:06.048Z,34.35
2018-08-09T08:37:51.094Z,34.91
2018-08-09T08:38:51.395Z,34.85
2018-08-09T08:40:51.469Z,34.88
2018-08-09T08:41:52.342Z,35.33
2018-08-09T08:42:51.530Z,35.6
2018-08-09T08:43:51.571Z,35.55
2018-08-09T08:44:51.346Z,35.44
2018-08-09T08:45:51.640Z,35.59
2018-08-09T08:46:51.678Z,36.05
2018-08-09T08:47:51.713Z,36.28
2018-08-09T08:48:51.490Z,36.32
2018-08-09T08:49:51.530Z,35.8
2018-08-09T08:50:51.559Z,35.82
2018-08-09T08:52:06.517Z,36.13
2018-08-09T08:52:51.894Z,36.01
2018-08-09T08:53:51.929Z,35.59
2018-08-09T08:55:52.003Z,34.91
2018-08-09T08:56:52.071Z,34.69
2018-08-09T08:57:52.073Z,34.56
2018-08-09T08:58:52.110Z,34.73
2018-08-09T08:59:51.885Z,34.21
2018-08-09T09:00:51.726Z,34.31
2018-08-09T09:02:06.620Z,35
2018-08-09T09:02:52.248Z,35.03
2018-08-09T09:03:52.033Z,35.4
2018-08-09T09:05:52.369Z,35.23
2018-08-09T09:06:52.449Z,36.01
2018-08-09T09:08:06.834Z,36.32
2018-08-09T09:08:52.471Z,36.13
2018-08-09T09:09:52.543Z,35.47
2018-08-09T09:10:52.278Z,35.11
2018-08-09T09:11:52.601Z,34.66
2018-08-09T09:12:52.609Z,35.02
2018-08-09T09:13:52.514Z,35.19
2018-08-09T09:14:52.676Z,35.43
2018-08-09T09:15:52.457Z,35.28
2018-08-09T09:16:52.490Z,35.26
2018-08-09T09:17:52.785Z,35.41
2018-08-09T09:19:52.858Z,35.87
2018-08-09T09:20:52.890Z,36.08
2018-08-09T09:21:52.925Z,35.72
2018-08-09T09:22:52.955Z,35.41
2018-08-09T09:24:07.400Z,35.5
2018-08-09T09:24:53.027Z,35.47
2018-08-09T09:26:52.886Z,35.04
2018-08-09T09:27:53.134Z,34.77
2018-08-09T09:28:52.914Z,35
2018-08-09T09:30:07.710Z,35.23
2018-08-09T09:30:53.242Z,35.55
2018-08-09T09:31:53.273Z,35.82
2018-08-09T09:32:53.317Z,36.32
2018-08-09T09:33:53.089Z,36.17
2018-08-09T09:34:53.123Z,36.05
2018-08-09T09:35:53.155Z,36.54
2018-08-09T09:36:53.451Z,36.66
2018-08-09T09:37:53.489Z,36.44
2018-08-09T09:39:08.185Z,36.54
2018-08-09T09:39:53.558Z,36.81
2018-08-09T09:40:53.599Z,36.69
2018-08-09T09:42:53.661Z,36.81
2018-08-09T09:43:53.699Z,36.83
2018-08-09T09:44:53.473Z,36.56
2018-08-09T09:45:53.766Z,36.2
2018-08-09T09:46:53.545Z,36.15
2018-08-09T09:47:53.843Z,36.54
2018-08-09T09:48:53.612Z,36.47
2018-08-09T09:49:53.739Z,35.68
2018-08-09T09:50:53.941Z,35.41
2018-08-09T09:51:53.979Z,34.87
2018-08-09T09:52:54.017Z,34.7
2018-08-09T09:53:54.051Z,35.09
2018-08-09T09:54:54.163Z,35.45
2018-08-09T09:55:54.141Z,35.58
2018-08-09T09:57:54.186Z,35.1
2018-08-09T09:58:54.220Z,35.03
2018-08-09T09:59:54.254Z,35.21
2018-08-09T10:01:08.957Z,35.36
2018-08-09T10:01:54.618Z,35.55
2018-08-09T10:02:54.100Z,36.01
2018-08-09T10:03:54.401Z,36.49
2018-08-09T10:04:54.169Z,36.87
2018-08-09T10:05:54.467Z,36.51
2018-08-09T10:06:54.236Z,36.73
2018-08-09T10:07:54.533Z,36.62
2018-08-09T10:08:54.567Z,36.5
2018-08-09T10:09:54.599Z,36.47
2018-08-09T10:11:09.042Z,36.72
2018-08-09T10:11:54.411Z,36.87
2018-08-09T10:12:54.810Z,36.85
2018-08-09T10:13:54.740Z,37.03
2018-08-09T10:14:54.936Z,36.81
2018-08-09T10:15:54.811Z,36.56
2018-08-09T10:16:54.339Z,36.31
2018-08-09T10:17:54.619Z,36.19
2018-08-09T10:18:54.914Z,35.7
2018-08-09T10:19:55.106Z,35.6
2018-08-09T10:20:54.727Z,35.81
2018-08-09T10:21:54.756Z,36.15
2018-08-09T10:22:55.056Z,36.39
2018-08-09T10:23:55.085Z,36.72
2018-08-09T10:24:55.114Z,36.85
2018-08-09T10:25:54.636Z,36.32
2018-08-09T10:27:09.849Z,35.9
2018-08-09T10:27:54.959Z,35.89
2018-08-09T10:28:55.000Z,36.17
2018-08-09T10:30:09.989Z,35.89
2018-08-09T10:30:55.321Z,35.81
2018-08-09T10:31:55.354Z,35.34
2018-08-09T10:32:55.391Z,35.19
2018-08-09T10:33:55.424Z,35.33
2018-08-09T10:34:55.458Z,34.91
2018-08-09T10:35:55.246Z,35.07
2018-08-09T10:36:55.529Z,35.21
2018-08-09T10:37:55.049Z,35.21
2018-08-09T10:38:55.606Z,35.28
2018-08-09T10:40:55.404Z,35.09
2018-08-09T10:43:10.393Z,34.66
2018-08-09T10:43:55.761Z,34.69
2018-08-09T10:44:55.796Z,34.34
2018-08-09T10:45:55.834Z,34.17
2018-08-09T10:46:55.864Z,34.47
2018-08-09T10:47:55.643Z,34.54
2018-08-09T10:48:56.035Z,34.85
2018-08-09T10:50:10.633Z,34.89
2018-08-09T10:50:55.998Z,34.85
2018-08-09T10:52:10.441Z,34.8
2018-08-09T10:52:55.808Z,34.88
2018-08-09T10:53:56.097Z,34.89
2018-08-09T10:54:55.877Z,34.91
2018-08-09T10:55:56.174Z,34.96
2018-08-09T10:56:56.207Z,34.81
2018-08-09T10:57:56.236Z,34.82
2018-08-09T10:59:10.933Z,34.82
2018-08-09T10:59:56.302Z,35
2018-08-09T11:01:56.115Z,35.33
2018-08-09T11:02:56.410Z,34.96
2018-08-09T11:04:11.102Z,35.09
2018-08-09T11:04:56.465Z,35.19
2018-08-09T11:05:56.502Z,35.16
2018-08-09T11:06:56.277Z,35.33
2018-08-09T11:08:11.231Z,34.78
2018-08-09T11:08:56.605Z,34.77
2018-08-09T11:09:56.651Z,34.62
2018-08-09T11:10:56.664Z,34.64
2018-08-09T11:11:56.441Z,34.7
2018-08-09T11:12:56.731Z,34.66
2018-08-09T11:14:11.428Z,34.66
2018-08-09T11:14:56.554Z,34.59
2018-08-09T11:15:56.833Z,34.42
2018-08-09T11:18:56.932Z,34.66
2018-08-09T11:19:56.707Z,34.62
2018-08-09T11:20:56.993Z,34.69
2018-08-09T11:21:57.031Z,34.78
2018-08-09T11:22:57.067Z,34.91
2018-08-09T11:23:56.841Z,35.07
2018-08-09T11:24:57.125Z,35.06
2018-08-09T11:25:56.905Z,35.02
2018-08-09T11:26:57.199Z,34.84
2018-08-09T11:27:56.965Z,34.66
2018-08-09T11:28:57.265Z,34.61
2018-08-09T11:29:57.043Z,34.61
2018-08-09T11:30:57.324Z,34.73
2018-08-09T11:31:57.142Z,34.78
2018-08-09T11:32:57.387Z,34.87
2018-08-09T11:33:57.552Z,34.97
2018-08-09T11:34:57.446Z,35.09
2018-08-09T11:35:57.479Z,34.97
2018-08-09T11:36:57.515Z,34.91
2018-08-09T11:37:57.547Z,34.73
2018-08-09T11:39:12.246Z,34.46
2018-08-09T11:40:12.020Z,34.25
2018-08-09T11:40:57.493Z,34.28
2018-08-09T11:41:57.418Z,34.05
2018-08-09T11:42:57.793Z,34
2018-08-09T11:43:57.766Z,34.09
2018-08-09T11:44:57.773Z,34.17
2018-08-09T11:46:12.477Z,34.25
2018-08-09T11:46:57.578Z,34.46
2018-08-09T11:47:57.878Z,34.66
2018-08-09T11:48:57.898Z,34.58
2018-08-09T11:49:57.931Z,34.43
2018-08-09T11:50:57.969Z,34.27
2018-08-09T11:51:57.739Z,34.16
2018-08-09T11:52:58.038Z,34.28
2018-08-09T11:53:58.064Z,34.46
2018-08-09T11:55:12.758Z,34.35
2018-08-09T11:55:57.874Z,34.32
2018-08-09T11:56:58.353Z,34.5
2018-08-09T11:57:58.189Z,34.43
2018-08-09T11:58:58.220Z,34.54
2018-08-09T11:59:57.994Z,34.54
2018-08-09T12:00:58.285Z,34.47
2018-08-09T12:02:12.981Z,34.42
2018-08-09T12:02:58.101Z,34.46
2018-08-09T12:03:58.390Z,34.3
2018-08-09T12:04:58.415Z,34.27
2018-08-09T12:05:58.443Z,34.24
2018-08-09T12:06:58.499Z,34.47
2018-08-09T12:07:58.521Z,34.58
2018-08-09T12:08:58.546Z,34.58
2018-08-09T12:09:58.571Z,34.49
2018-08-09T12:10:58.346Z,34.56
2018-08-09T12:12:13.300Z,34.8
2018-08-09T12:12:58.667Z,34.85
2018-08-09T12:13:58.711Z,34.75
2018-08-09T12:14:58.850Z,34.85
2018-08-09T12:15:58.767Z,34.81
2018-08-09T12:16:58.795Z,34.8
2018-08-09T12:18:13.491Z,34.82
2018-08-09T12:18:58.599Z,34.96
2018-08-09T12:19:58.900Z,34.7
2018-08-09T12:21:13.724Z,34.54
2018-08-09T12:21:58.954Z,34.52
2018-08-09T12:22:58.983Z,34.47
2018-08-09T12:23:59.016Z,34.72
2018-08-09T12:24:59.050Z,34.61
2018-08-09T12:25:59.079Z,34.52
2018-08-09T12:26:59.260Z,34.56
2018-08-09T12:27:59.144Z,34.66
2018-08-09T12:28:59.173Z,34.69
2018-08-09T12:29:59.207Z,34.75
2018-08-09T12:30:59.241Z,34.72
2018-08-09T12:32:59.144Z,34.47
2018-08-09T12:34:13.742Z,34.72
2018-08-09T12:34:59.366Z,34.8
2018-08-09T12:36:59.465Z,34.91
2018-08-09T12:37:59.570Z,34.88
2018-08-09T12:38:59.491Z,35.02
2018-08-09T12:39:59.268Z,34.99
2018-08-09T12:40:59.555Z,34.97
2018-08-09T12:41:59.592Z,34.97
2018-08-09T12:43:14.284Z,34.89
2018-08-09T12:43:59.394Z,34.87
2018-08-09T12:44:59.425Z,34.88
2018-08-09T12:45:59.726Z,34.94
2018-08-09T12:46:59.493Z,34.94
2018-08-09T12:49:14.480Z,34.89
2018-08-09T12:49:59.840Z,35.07
2018-08-09T12:50:59.617Z,35.04
2018-08-09T12:52:59.937Z,35.07
2018-08-09T12:53:59.972Z,35.23
2018-08-09T12:54:59.751Z,35.28
2018-08-09T12:55:59.776Z,35.15
2018-08-09T12:56:59.808Z,35.28
2018-08-09T12:58:00.097Z,35.21
2018-08-09T12:59:14.794Z,35.21
2018-08-09T13:00:00.358Z,35.16
2018-08-09T13:01:00.192Z,35.09
2018-08-09T13:02:00.267Z,35.02
2018-08-09T13:03:00.256Z,35.19
2018-08-09T13:04:00.297Z,35.21
2018-08-09T13:05:00.063Z,35.34
2018-08-09T13:06:00.093Z,35.41
2018-08-09T13:07:00.384Z,35.4
2018-08-09T13:08:00.419Z,35.44
2018-08-09T13:12:00.548Z,35.47
2018-08-09T13:13:00.577Z,35.47
2018-08-09T13:14:00.610Z,35.56
2018-08-09T13:15:00.639Z,35.68
2018-08-09T13:16:15.175Z,35.8
2018-08-09T13:17:00.921Z,35.85
2018-08-09T13:18:00.479Z,35.77
2018-08-09T13:19:00.772Z,35.53
2018-08-09T13:20:00.637Z,35.37
2018-08-09T13:21:15.236Z,35.41
2018-08-09T13:22:00.869Z,35.36
2018-08-09T13:23:00.633Z,35.25
2018-08-09T13:24:00.930Z,35.15
2018-08-09T13:25:00.954Z,35.38
2018-08-09T13:26:00.731Z,35.36
2018-08-09T13:27:01.017Z,35.41
2018-08-09T13:28:01.049Z,35.4
2018-08-09T13:29:01.080Z,35.36
2018-08-09T13:30:00.860Z,35.29
2018-08-09T13:31:15.808Z,35.43
2018-08-09T13:32:01.187Z,35.44
2018-08-09T13:33:01.207Z,35.34
2018-08-09T13:34:01.257Z,35.1
2018-08-09T13:35:01.276Z,35.29
2018-08-09T13:36:01.302Z,35.41
2018-08-09T13:37:16.000Z,35.56
2018-08-09T13:38:01.140Z,35.5
2018-08-09T13:39:01.401Z,35.43
2018-08-09T13:40:01.175Z,35.38
2018-08-09T13:41:01.462Z,35.47
2018-08-09T13:42:01.235Z,35.4
2018-08-09T13:43:01.527Z,35.41
2018-08-09T13:44:01.570Z,35.53
2018-08-09T13:45:01.605Z,35.47
2018-08-09T13:46:01.621Z,35.52
2018-08-09T13:47:01.658Z,35.53
2018-08-09T13:48:01.428Z,35.45
2018-08-09T13:50:01.489Z,35.72
2018-08-09T13:51:01.781Z,35.65
2018-08-09T13:52:01.815Z,35.71
2018-08-09T13:53:16.517Z,35.63
2018-08-09T13:54:01.875Z,35.62
2018-08-09T13:55:01.903Z,35.44
2018-08-09T13:57:01.972Z,35.47